Emelle, Alabama
Current Conditions -  °F | °C
As of 2:01 PM on Sunday 21 Dec 2014 (Local Time) from KNMM Reporting Station
Overcast Overcast  
Wind Chill: 47°   Ceiling: 700
Heat Index: 49°   Visibility: 7mi
Dew Point: 45°   Wind: 6mph
Humidity: 86%   Direction: 80°E
Pressure: 30.07"   Gusts: NA
Location:  32.73°N, 88.31°W
Report Text: KNMM 212001Z 08005KT 7SM OVC007 09/07 A3007 RMK AO2 T00940072
Loading
Personal Weather Stations






























Interactive Weather Map New forecast layout! Learn more

10-Day Weather Forecast

Advertisements
Track Severe Weather on mobile